Current Weather

De Kalb Taylor Muni

De Kalb, Illinois (KDKB)

Report from: Wednesday, August 17, 2022 9:15 PM CDT
Current time: Wednesday, August 17, 2022 9:38 PM CDT

Nearby weather
Weather history
Weather forecast

Temperature19.8°C (67.6°F)
Dew point17.0°C (62.6°F)
Winds Calm
Visibility10 mi. (16.1 km)
Clouds Sky clear
Altimeter30.10 in.Hg (1019 mB)
Relative humidity84 %
Density altitude623 ft. (190 m)
Remarks Fully automated report
Automated weather observing station with precipitation discriminator
Flight conditions Visual Meteorological Conditions
Raw dataKDKB 180215Z AUTO 00000KT 10SM CLR 20/17 A3010 RMK AO2 T01980170
An error has occurred. This application may no longer respond until reloaded. Reload 🗙